Time;durP1;ratioP1;P1;durP2;ratioP2;P2;SDS_P1;SDS_P2;PMS_P1;PMS_P2;Temp;Humidity;BMP_temperature;BMP_pressure;BME280_temperature;BME280_humidity;BME280_pressure;Samples;Min_cycle;Max_cycle;Signal;HPM_P1;HPM_P2
2024/02/21 00:01:45;;;;;;;0.10;0.10;;;6.50;94.70;;;;;;5086322;28;20029;-86
2024/02/21 00:04:11;;;;;;;0.10;0.10;;;6.50;94.60;;;;;;5084808;28;20042;-86
2024/02/21 00:06:39;;;;;;;1.77;1.67;;;6.50;94.60;;;;;;5086410;28;20444;-86
2024/02/21 00:09:04;;;;;;;0.10;0.10;;;6.50;94.70;;;;;;5086701;28;20024;-86
2024/02/21 00:11:30;;;;;;;0.32;0.32;;;6.40;94.90;;;;;;5077654;28;20081;-89
2024/02/21 00:13:56;;;;;;;1.08;0.65;;;6.40;95.00;;;;;;5086892;28;20036;-87
2024/02/21 00:16:21;;;;;;;0.10;0.10;;;6.40;95.10;;;;;;5075887;28;20046;-87
2024/02/21 00:18:47;;;;;;;0.10;0.10;;;6.30;95.10;;;;;;5087826;28;20089;-86
2024/02/21 00:21:17;;;;;;;0.10;0.10;;;6.30;95.20;;;;;;5074357;28;20071;-87
2024/02/21 00:23:45;;;;;;;0.10;0.10;;;6.30;95.40;;;;;;5083478;28;20112;-87
2024/02/21 00:26:14;;;;;;;0.10;0.10;;;6.20;95.60;;;;;;5080903;28;20036;-85
2024/02/21 00:28:40;;;;;;;0.10;0.10;;;6.00;96.00;;;;;;5081905;28;20032;-86
2024/02/21 00:31:05;;;;;;;0.10;0.10;;;6.00;96.10;;;;;;5084457;28;20050;-86
2024/02/21 00:33:31;;;;;;;0.10;0.10;;;6.10;96.10;;;;;;5085875;28;20028;-86
2024/02/21 00:35:57;;;;;;;3.77;0.57;;;6.00;96.30;;;;;;5077910;28;20058;-86
2024/02/21 00:38:22;;;;;;;0.35;0.35;;;5.90;96.50;;;;;;5078029;28;20039;-86
2024/02/21 00:40:48;;;;;;;0.10;0.10;;;6.00;96.50;;;;;;5085619;28;20032;-87
2024/02/21 00:43:14;;;;;;;1.50;1.40;;;6.00;96.70;;;;;;5078655;28;20051;-87
2024/02/21 00:45:39;;;;;;;0.10;0.10;;;5.90;96.70;;;;;;5086152;28;20024;-87
2024/02/21 00:48:05;;;;;;;0.10;0.10;;;5.90;96.90;;;;;;5080131;28;20101;-87
2024/02/21 00:50:31;;;;;;;0.10;0.10;;;6.00;96.90;;;;;;5086319;28;20036;-87
2024/02/21 00:52:57;;;;;;;0.10;0.10;;;5.90;96.80;;;;;;5081560;28;20081;-86
2024/02/21 00:55:23;;;;;;;0.10;0.10;;;5.90;97.00;;;;;;5080779;28;20035;-87
2024/02/21 00:57:49;;;;;;;0.10;0.10;;;5.90;97.10;;;;;;5083410;28;20048;-88
2024/02/21 01:00:15;;;;;;;0.10;0.10;;;6.00;97.00;;;;;;5082466;28;20527;-87
2024/02/21 01:02:41;;;;;;;0.17;0.17;;;6.00;96.80;;;;;;5079492;28;20024;-87
2024/02/21 01:05:07;;;;;;;0.17;0.17;;;6.10;96.70;;;;;;5085155;28;20118;-87
2024/02/21 01:07:33;;;;;;;0.10;0.10;;;6.10;96.60;;;;;;5085391;28;20027;-86
2024/02/21 01:09:58;;;;;;;0.17;0.17;;;6.10;96.60;;;;;;5080145;28;20037;-87
2024/02/21 01:12:24;;;;;;;0.10;0.10;;;5.80;97.10;;;;;;5080895;28;20024;-86
2024/02/21 01:14:50;;;;;;;0.10;0.10;;;5.80;97.40;;;;;;5085843;28;20031;-85
2024/02/21 01:17:16;;;;;;;0.10;0.10;;;5.80;97.50;;;;;;5078866;28;20515;-84
2024/02/21 01:19:41;;;;;;;0.10;0.10;;;5.70;97.80;;;;;;5078960;28;20035;-85
2024/02/21 01:22:07;;;;;;;0.10;0.10;;;5.70;97.90;;;;;;5080901;28;20655;-85
2024/02/21 01:24:33;;;;;;;0.20;0.20;;;5.60;98.20;;;;;;5080702;28;20640;-82
2024/02/21 01:26:59;;;;;;;0.00;0.00;;;5.50;98.40;;;;;;5083605;28;20032;-83
2024/02/21 01:29:24;;;;;;;0.47;0.47;;;5.50;98.60;;;;;;5073823;28;20028;-82
2024/02/21 01:31:50;;;;;;;0.10;0.10;;;5.50;98.70;;;;;;5083313;28;20028;-82
2024/02/21 01:34:16;;;;;;;0.10;0.10;;;5.50;98.80;;;;;;5078177;28;20028;-83
2024/02/21 01:36:41;;;;;;;0.10;0.10;;;5.50;98.80;;;;;;5087039;28;20028;-83
2024/02/21 01:39:07;;;;;;;0.43;0.40;;;5.50;98.80;;;;;;5086784;28;20483;-82
2024/02/21 01:41:33;;;;;;;0.10;0.10;;;5.50;98.80;;;;;;5079609;28;20030;-82
2024/02/21 01:43:59;;;;;;;0.20;0.20;;;5.60;98.70;;;;;;5080313;28;20845;-83
2024/02/21 01:46:28;;;;;;;0.20;0.20;;;5.60;98.50;;;;;;5079983;28;20492;-83
2024/02/21 01:48:56;;;;;;;0.20;0.20;;;5.60;98.60;;;;;;5085905;28;20027;-84
2024/02/21 01:51:22;;;;;;;0.13;0.13;;;5.50;98.80;;;;;;5078996;28;20029;-84
2024/02/21 01:53:47;;;;;;;0.47;0.47;;;5.40;99.00;;;;;;5078017;28;20491;-84
2024/02/21 01:56:13;;;;;;;0.10;0.10;;;5.40;99.20;;;;;;5081033;28;20028;-85
2024/02/21 01:58:42;;;;;;;0.10;0.10;;;5.40;99.30;;;;;;5084291;28;20055;-84
2024/02/21 02:01:09;;;;;;;0.38;0.38;;;5.40;99.40;;;;;;5080852;28;20032;-84
2024/02/21 02:03:35;;;;;;;0.30;0.30;;;5.30;99.60;;;;;;5083216;28;20756;-84
2024/02/21 02:06:00;;;;;;;0.10;0.10;;;5.20;99.90;;;;;;5086405;28;20089;-85
2024/02/21 02:08:27;;;;;;;0.20;0.20;;;5.10;99.90;;;;;;5087948;28;20091;-84
2024/02/21 02:10:52;;;;;;;0.10;0.10;;;5.10;99.90;;;;;;5085930;28;20024;-85
2024/02/21 02:13:18;;;;;;;0.10;0.10;;;5.00;99.90;;;;;;5088934;28;20254;-84
2024/02/21 02:15:46;;;;;;;0.10;0.10;;;4.90;99.90;;;;;;5087214;28;20035;-83
2024/02/21 02:18:12;;;;;;;0.10;0.10;;;5.00;99.90;;;;;;5084090;28;20023;-82
2024/02/21 02:20:38;;;;;;;0.10;0.10;;;4.90;99.90;;;;;;5087765;28;20085;-81
2024/02/21 02:23:04;;;;;;;0.10;0.10;;;4.90;99.90;;;;;;5086536;28;20032;-81
2024/02/21 02:25:29;;;;;;;0.38;0.38;;;4.90;99.90;;;;;;5088710;28;20039;-85
2024/02/21 02:27:55;;;;;;;0.10;0.10;;;5.00;99.90;;;;;;5086146;28;20027;-84
2024/02/21 02:30:21;;;;;;;0.10;0.10;;;4.90;99.90;;;;;;5084754;28;20028;-85
2024/02/21 02:32:47;;;;;;;0.10;0.10;;;5.00;99.90;;;;;;5088151;28;20495;-85
2024/02/21 02:35:13;;;;;;;0.20;0.20;;;4.90;99.90;;;;;;5086466;28;20097;-85
2024/02/21 02:37:38;;;;;;;0.10;0.10;;;4.90;99.90;;;;;;5085713;28;20036;-83
2024/02/21 02:40:06;;;;;;;0.10;0.10;;;4.90;99.90;;;;;;5084296;28;20165;-85
2024/02/21 02:42:32;;;;;;;0.10;0.10;;;5.00;99.90;;;;;;5087260;28;20114;-85
2024/02/21 02:44:57;;;;;;;0.10;0.10;;;5.00;99.90;;;;;;5084755;28;20108;-86
2024/02/21 02:47:23;;;;;;;0.10;0.10;;;5.00;99.90;;;;;;5091935;28;20077;-86
2024/02/21 02:49:50;;;;;;;0.10;0.10;;;5.10;99.90;;;;;;5084036;28;20020;-84
2024/02/21 02:52:17;;;;;;;0.10;0.10;;;5.20;99.90;;;;;;5086241;28;20039;-84
2024/02/21 02:54:44;;;;;;;0.10;0.10;;;5.20;99.90;;;;;;5092425;28;20887;-86
2024/02/21 02:57:09;;;;;;;0.10;0.10;;;5.30;99.90;;;;;;5079649;28;20052;-85
2024/02/21 02:59:35;;;;;;;0.20;0.20;;;5.30;99.90;;;;;;5089316;28;20584;-86
2024/02/21 03:02:01;;;;;;;0.10;0.10;;;5.30;99.90;;;;;;5087459;28;20032;-85
2024/02/21 03:04:26;;;;;;;0.13;0.13;;;5.20;99.90;;;;;;5086624;28;20059;-85
2024/02/21 03:06:52;;;;;;;0.10;0.10;;;5.30;99.90;;;;;;5087060;28;20034;-84
2024/02/21 03:09:18;;;;;;;0.10;0.10;;;5.30;99.90;;;;;;5085437;28;20028;-85
2024/02/21 03:11:44;;;;;;;0.10;0.10;;;5.20;99.90;;;;;;5081466;28;20036;-84
2024/02/21 03:14:10;;;;;;;0.10;0.10;;;5.20;99.90;;;;;;5079708;28;20055;-86
2024/02/21 03:16:36;;;;;;;0.10;0.10;;;5.20;99.90;;;;;;5073434;28;20032;-85
2024/02/21 03:19:01;;;;;;;0.65;0.45;;;5.10;99.90;;;;;;5078575;28;20033;-85
2024/02/21 03:21:27;;;;;;;0.10;0.10;;;5.10;99.90;;;;;;5086808;28;20388;-84
2024/02/21 03:23:53;;;;;;;0.10;0.10;;;5.10;99.90;;;;;;5085309;28;20063;-85
2024/02/21 03:26:18;;;;;;;0.10;0.10;;;5.10;99.90;;;;;;5081738;28;20020;-85
2024/02/21 03:28:48;;;;;;;0.10;0.10;;;5.10;99.90;;;;;;5078276;28;20055;-84
2024/02/21 03:31:14;;;;;;;0.10;0.10;;;5.10;99.90;;;;;;5085244;28;20097;-85
2024/02/21 03:33:42;;;;;;;0.10;0.10;;;5.10;99.90;;;;;;5088079;28;20032;-84
2024/02/21 03:36:14;;;;;;;0.10;0.10;;;5.10;99.90;;;;;;5086430;28;20073;-85
2024/02/21 03:38:40;;;;;;;0.10;0.10;;;5.20;99.90;;;;;;5086984;28;20103;-86
2024/02/21 03:41:05;;;;;;;0.10;0.10;;;5.30;99.90;;;;;;5085434;28;20081;-85
2024/02/21 03:43:31;;;;;;;0.10;0.10;;;5.20;99.90;;;;;;5084842;28;20024;-85
2024/02/21 03:45:57;;;;;;;0.10;0.10;;;5.20;99.90;;;;;;5082991;28;20119;-85
2024/02/21 03:48:22;;;;;;;0.20;0.20;;;5.20;99.90;;;;;;5079478;28;20108;-85
2024/02/21 03:50:48;;;;;;;0.10;0.10;;;5.20;99.90;;;;;;5080529;28;20856;-86
2024/02/21 03:53:14;;;;;;;0.10;0.10;;;5.20;99.90;;;;;;5087014;28;20050;-85
2024/02/21 03:55:39;;;;;;;0.10;0.10;;;5.20;99.90;;;;;;5082526;28;20039;-84
2024/02/21 03:58:05;;;;;;;0.10;0.10;;;5.20;99.90;;;;;;5081448;28;20917;-85
2024/02/21 04:00:31;;;;;;;0.10;0.10;;;5.20;99.90;;;;;;5084280;28;20156;-84
2024/02/21 04:02:56;;;;;;;0.10;0.10;;;5.10;99.90;;;;;;5077305;28;20036;-84
2024/02/21 04:05:22;;;;;;;0.35;0.35;;;5.10;99.90;;;;;;5084486;28;20032;-83
2024/02/21 04:07:48;;;;;;;0.57;0.55;;;4.90;99.90;;;;;;5082207;28;20085;-84
2024/02/21 04:10:13;;;;;;;0.10;0.10;;;4.80;99.90;;;;;;5083261;28;20024;-83
2024/02/21 04:12:39;;;;;;;0.38;0.32;;;4.70;99.90;;;;;;5080303;28;20089;-83
2024/02/21 04:15:05;;;;;;;0.10;0.10;;;4.60;99.90;;;;;;5070389;28;20055;-83
2024/02/21 04:17:31;;;;;;;0.10;0.10;;;4.60;99.90;;;;;;5078855;28;20040;-82
2024/02/21 04:20:05;;;;;;;0.10;0.10;;;4.70;99.90;;;;;;5078719;28;20047;-84
2024/02/21 04:22:34;;;;;;;0.15;0.15;;;4.60;99.90;;;;;;5075159;28;20060;-84
2024/02/21 04:25:00;;;;;;;1.83;1.73;;;4.60;99.90;;;;;;5085353;28;20720;-82
2024/02/21 04:27:26;;;;;;;0.10;0.10;;;4.60;99.90;;;;;;5088642;28;20492;-82
2024/02/21 04:29:53;;;;;;;0.10;0.10;;;4.70;99.90;;;;;;5071207;28;20349;-83
2024/02/21 04:32:18;;;;;;;0.20;0.20;;;4.60;99.90;;;;;;5078069;28;20024;-82
2024/02/21 04:34:44;;;;;;;0.10;0.10;;;4.70;99.90;;;;;;5086152;28;20028;-85
2024/02/21 04:37:10;;;;;;;0.20;0.20;;;4.70;99.90;;;;;;5081314;28;20036;-85
2024/02/21 04:39:35;;;;;;;0.10;0.10;;;4.70;99.90;;;;;;5071660;28;20063;-83
2024/02/21 04:42:01;;;;;;;0.10;0.10;;;4.60;99.90;;;;;;5081000;28;20036;-84
2024/02/21 04:44:27;;;;;;;0.10;0.10;;;4.60;99.90;;;;;;5076934;28;20037;-85
2024/02/21 04:46:53;;;;;;;0.10;0.10;;;4.50;99.90;;;;;;5079114;28;20028;-85
2024/02/21 04:49:18;;;;;;;0.13;0.13;;;4.50;99.90;;;;;;5085107;28;20439;-85
2024/02/21 04:51:44;;;;;;;0.10;0.10;;;4.40;99.90;;;;;;5080320;28;20024;-84
2024/02/21 04:54:10;;;;;;;0.10;0.10;;;4.40;99.90;;;;;;5078224;28;20075;-85
2024/02/21 04:56:35;;;;;;;0.10;0.10;;;4.40;99.90;;;;;;5081589;28;20028;-85
2024/02/21 04:59:01;;;;;;;0.10;0.10;;;4.30;99.90;;;;;;5080202;28;20036;-82
2024/02/21 05:01:28;;;;;;;0.10;0.10;;;4.30;99.90;;;;;;5078733;28;20035;-82
2024/02/21 05:03:54;;;;;;;0.90;0.80;;;4.30;99.90;;;;;;5076995;28;20112;-82
2024/02/21 05:06:19;;;;;;;0.10;0.10;;;4.20;99.90;;;;;;5075825;28;20074;-82
2024/02/21 05:08:45;;;;;;;0.57;0.57;;;4.20;99.90;;;;;;5086196;28;20032;-83
2024/02/21 05:11:11;;;;;;;0.10;0.10;;;4.20;99.90;;;;;;5080249;28;20035;-83
2024/02/21 05:13:36;;;;;;;0.10;0.10;;;4.20;99.90;;;;;;5082255;28;20506;-83
2024/02/21 05:16:02;;;;;;;0.10;0.10;;;4.20;99.90;;;;;;5083728;28;20036;-83
2024/02/21 05:18:28;;;;;;;0.10;0.10;;;4.30;99.90;;;;;;5083666;28;20028;-83
2024/02/21 05:20:54;;;;;;;0.10;0.10;;;4.30;99.90;;;;;;5084361;28;20412;-83
2024/02/21 05:23:19;;;;;;;0.30;0.30;;;4.40;99.90;;;;;;5085610;28;20077;-83
2024/02/21 05:25:45;;;;;;;3.13;2.92;;;4.40;99.90;;;;;;5085482;28;20076;-86
2024/02/21 05:28:11;;;;;;;0.40;0.40;;;4.40;99.90;;;;;;5079267;28;20199;-86
2024/02/21 05:30:36;;;;;;;0.10;0.10;;;4.40;99.90;;;;;;5084381;28;20621;-84
2024/02/21 05:33:06;;;;;;;0.10;0.10;;;4.50;99.90;;;;;;5081382;28;20031;-86
2024/02/21 05:35:32;;;;;;;0.10;0.10;;;4.50;99.90;;;;;;5088356;28;20107;-84
2024/02/21 05:37:57;;;;;;;0.10;0.10;;;4.60;99.90;;;;;;5078048;28;20116;-84
2024/02/21 05:40:23;;;;;;;0.10;0.10;;;4.50;99.90;;;;;;5087098;28;20028;-82
2024/02/21 05:42:51;;;;;;;0.10;0.10;;;4.50;99.90;;;;;;5086575;28;20046;-86
2024/02/21 05:45:16;;;;;;;0.00;0.00;;;4.50;99.90;;;;;;5077777;28;20021;-84
2024/02/21 05:47:42;;;;;;;0.10;0.10;;;4.50;99.90;;;;;;5086444;28;20027;-81
2024/02/21 05:50:08;;;;;;;0.15;0.15;;;4.50;99.90;;;;;;5084790;28;20863;-84
2024/02/21 05:52:34;;;;;;;0.10;0.10;;;4.50;99.90;;;;;;5084620;28;20526;-88
2024/02/21 05:55:00;;;;;;;0.30;0.30;;;4.50;99.90;;;;;;5082806;28;20537;-85
2024/02/21 05:57:25;;;;;;;0.10;0.10;;;4.50;99.90;;;;;;5087814;28;20082;-85
2024/02/21 05:59:51;;;;;;;0.13;0.13;;;4.40;99.90;;;;;;5091192;28;20042;-85
2024/02/21 06:02:17;;;;;;;0.10;0.10;;;4.40;99.90;;;;;;5090857;28;20096;-83
2024/02/21 06:04:42;;;;;;;0.40;0.40;;;4.40;99.90;;;;;;5078509;28;20490;-85
2024/02/21 06:07:08;;;;;;;0.10;0.10;;;4.40;99.90;;;;;;5084893;28;20028;-87
2024/02/21 06:09:34;;;;;;;0.10;0.10;;;4.40;99.90;;;;;;5084451;28;20025;-84
2024/02/21 06:12:00;;;;;;;0.10;0.10;;;4.40;99.90;;;;;;5085148;28;20028;-81
2024/02/21 06:14:25;;;;;;;0.10;0.10;;;4.30;99.90;;;;;;5085044;28;20039;-82
2024/02/21 06:16:51;;;;;;;0.10;0.10;;;4.30;99.90;;;;;;5077426;28;20421;-86
2024/02/21 06:19:17;;;;;;;0.10;0.10;;;4.30;99.90;;;;;;5084401;28;20023;-86
2024/02/21 06:21:42;;;;;;;0.10;0.10;;;4.30;99.90;;;;;;5084881;28;20024;-84
2024/02/21 06:24:08;;;;;;;0.10;0.10;;;4.30;99.90;;;;;;5087962;28;20040;-85
2024/02/21 06:26:34;;;;;;;0.10;0.10;;;4.20;99.90;;;;;;5083236;28;20052;-84
2024/02/21 06:28:59;;;;;;;0.52;0.52;;;4.20;99.90;;;;;;5080116;28;20111;-83
2024/02/21 06:31:25;;;;;;;0.22;0.22;;;4.10;99.90;;;;;;5085707;28;20024;-90
2024/02/21 06:33:51;;;;;;;0.10;0.10;;;4.00;99.90;;;;;;5087264;28;20032;-85
2024/02/21 06:36:16;;;;;;;0.10;0.10;;;4.10;99.90;;;;;;5084145;28;20035;-82
2024/02/21 06:38:42;;;;;;;0.20;0.20;;;4.20;99.90;;;;;;5084600;28;20032;-84
2024/02/21 06:41:19;;;;;;;0.10;0.10;;;4.20;99.90;;;;;;5088235;28;20028;-82
2024/02/21 06:43:48;;;;;;;0.10;0.10;;;4.20;99.90;;;;;;5084028;28;20020;-81
2024/02/21 06:46:33;;;;;;;0.20;0.20;;;4.30;99.90;;;;;;5085042;28;20130;-83
2024/02/21 06:49:00;;;;;;;0.10;0.10;;;4.40;99.90;;;;;;5082811;28;20107;-83
2024/02/21 06:51:26;;;;;;;0.10;0.10;;;4.50;99.90;;;;;;5090276;28;20035;-82
2024/02/21 06:53:53;;;;;;;0.10;0.10;;;4.60;99.90;;;;;;5080575;28;20879;-83
2024/02/21 06:56:19;;;;;;;0.10;0.10;;;4.70;99.90;;;;;;5089970;28;20095;-83
2024/02/21 06:58:44;;;;;;;0.10;0.10;;;4.80;99.90;;;;;;5080604;28;20056;-83
2024/02/21 07:01:11;;;;;;;0.10;0.10;;;4.80;99.90;;;;;;5083578;28;20032;-86
2024/02/21 07:03:37;;;;;;;0.10;0.10;;;4.80;99.90;;;;;;5076958;28;20036;-85
2024/02/21 07:06:03;;;;;;;0.13;0.13;;;4.80;99.90;;;;;;5075590;28;20575;-85
2024/02/21 07:08:29;;;;;;;0.10;0.10;;;4.80;99.90;;;;;;5082069;28;20352;-84
2024/02/21 07:10:54;;;;;;;0.20;0.20;;;4.90;99.90;;;;;;5074845;28;20021;-84
2024/02/21 07:13:21;;;;;;;0.10;0.10;;;5.00;99.90;;;;;;5075471;28;20024;-85
2024/02/21 07:15:48;;;;;;;0.10;0.10;;;5.00;99.90;;;;;;5079647;28;20675;-80
2024/02/21 07:18:13;;;;;;;0.10;0.10;;;5.10;99.90;;;;;;5080644;28;20032;-80
2024/02/21 07:20:41;;;;;;;0.10;0.10;;;5.10;99.90;;;;;;5076373;28;20213;-83
2024/02/21 07:23:07;;;;;;;0.10;0.10;;;4.90;99.90;;;;;;5078154;28;20038;-81
2024/02/21 07:25:33;;;;;;;0.00;0.00;;;4.90;99.90;;;;;;5081453;28;20028;-82
2024/02/21 07:27:58;;;;;;;0.10;0.10;;;5.00;99.90;;;;;;5074377;28;20276;-82
2024/02/21 07:30:24;;;;;;;0.10;0.10;;;5.20;99.90;;;;;;5069552;28;20476;-82
2024/02/21 07:32:51;;;;;;;0.10;0.10;;;5.20;99.90;;;;;;5071041;28;20025;-82
2024/02/21 07:35:17;;;;;;;0.10;0.10;;;5.30;99.90;;;;;;5078558;28;20119;-82
2024/02/21 07:37:43;;;;;;;0.10;0.10;;;5.20;99.90;;;;;;5071972;28;20032;-82
2024/02/21 07:40:16;;;;;;;0.10;0.10;;;5.30;99.90;;;;;;5077258;28;20181;-84
2024/02/21 07:42:42;;;;;;;0.10;0.10;;;5.20;99.90;;;;;;5073239;28;20085;-83
2024/02/21 07:45:10;;;;;;;0.10;0.10;;;5.20;99.90;;;;;;5077497;28;20055;-83
2024/02/21 07:47:36;;;;;;;0.17;0.17;;;5.30;99.90;;;;;;5071319;28;20024;-84
2024/02/21 07:50:03;;;;;;;0.10;0.10;;;5.40;99.80;;;;;;5070824;28;20048;-84
2024/02/21 07:52:28;;;;;;;0.10;0.10;;;5.60;99.40;;;;;;5078129;28;20036;-85
2024/02/21 07:54:54;;;;;;;0.10;0.10;;;5.60;99.20;;;;;;5076244;28;20081;-84
2024/02/21 07:57:20;;;;;;;0.10;0.10;;;5.80;98.80;;;;;;5074837;28;20169;-83
2024/02/21 07:59:47;;;;;;;0.10;0.10;;;5.90;98.50;;;;;;5068475;28;20032;-84
2024/02/21 08:02:16;;;;;;;0.40;0.40;;;5.90;98.10;;;;;;5070316;28;20032;-82
2024/02/21 08:04:42;;;;;;;0.10;0.10;;;5.90;98.50;;;;;;5091059;28;20036;-80
2024/02/21 08:07:09;;;;;;;0.10;0.10;;;5.90;98.40;;;;;;5067932;28;20524;-81
2024/02/21 08:09:35;;;;;;;0.10;0.10;;;5.80;98.40;;;;;;5071162;28;20466;-80
2024/02/21 08:12:00;;;;;;;0.10;0.10;;;5.90;97.80;;;;;;5083602;28;20035;-81
2024/02/21 08:14:26;;;;;;;0.10;0.10;;;5.90;97.90;;;;;;5092000;28;20057;-81
2024/02/21 08:16:55;;;;;;;0.88;0.55;;;6.00;97.80;;;;;;5095059;28;20851;-81
2024/02/21 08:19:24;;;;;;;0.10;0.10;;;6.00;98.00;;;;;;5090203;28;20032;-81
2024/02/21 08:21:50;;;;;;;0.10;0.10;;;6.10;98.10;;;;;;5084914;28;20039;-82
2024/02/21 08:24:16;;;;;;;0.10;0.10;;;6.30;98.00;;;;;;5087972;28;20032;-81
2024/02/21 08:26:44;;;;;;;0.10;0.10;;;6.50;97.50;;;;;;5082534;28;20047;-81
2024/02/21 08:29:12;;;;;;;0.10;0.10;;;6.70;96.90;;;;;;5078694;28;20032;-82
2024/02/21 08:31:37;;;;;;;;;;;6.90;95.90;;;;;;5075787;28;20107;-82
2024/02/21 08:34:03;;;;;;;0.10;0.10;;;7.30;95.00;;;;;;5083270;28;20046;-81
2024/02/21 08:36:34;;;;;;;0.10;0.10;;;7.60;94.50;;;;;;5091100;28;20657;-81
2024/02/21 08:39:01;;;;;;;0.10;0.10;;;7.80;94.20;;;;;;5072579;28;20125;-82
2024/02/21 08:41:27;;;;;;;0.10;0.10;;;7.80;94.50;;;;;;5075970;28;20206;-81
2024/02/21 08:43:53;;;;;;;0.03;0.03;;;7.70;94.90;;;;;;5078345;28;20143;-81
2024/02/21 08:46:20;;;;;;;0.10;0.10;;;7.80;95.60;;;;;;5075996;28;20503;-81
2024/02/21 08:48:46;;;;;;;;;;;8.00;95.10;;;;;;5078384;28;20044;-81
2024/02/21 08:51:13;;;;;;;0.20;0.20;;;8.10;94.50;;;;;;5082789;28;20022;-82
2024/02/21 08:53:38;;;;;;;0.00;0.00;;;8.50;93.90;;;;;;5076206;28;20037;-82
2024/02/21 08:56:05;;;;;;;0.10;0.10;;;8.30;93.50;;;;;;5074570;28;20027;-81
2024/02/21 08:58:31;;;;;;;0.10;0.10;;;8.30;93.40;;;;;;5068898;28;20156;-82
2024/02/21 09:00:56;;;;;;;0.10;0.10;;;8.60;92.80;;;;;;5075614;28;20028;-82
2024/02/21 09:03:22;;;;;;;0.10;0.10;;;8.90;92.30;;;;;;5071938;28;20028;-81
2024/02/21 09:05:48;;;;;;;0.10;0.10;;;8.70;92.20;;;;;;5087056;28;20491;-82
2024/02/21 09:08:14;;;;;;;0.10;0.10;;;8.60;92.20;;;;;;5086734;28;20028;-81
2024/02/21 09:10:40;;;;;;;0.10;0.10;;;8.50;92.40;;;;;;5085151;28;20027;-81
2024/02/21 09:13:07;;;;;;;0.10;0.10;;;8.10;94.10;;;;;;5088202;28;20067;-81
2024/02/21 09:15:33;;;;;;;0.10;0.10;;;7.90;94.60;;;;;;5085236;28;20038;-81
2024/02/21 09:17:59;;;;;;;0.10;0.10;;;7.90;94.70;;;;;;5086201;28;20051;-81
2024/02/21 09:20:24;;;;;;;0.05;0.05;;;8.00;94.60;;;;;;5096100;28;20031;-82
2024/02/21 09:22:51;;;;;;;0.10;0.10;;;8.10;94.50;;;;;;5085787;28;20021;-81
2024/02/21 09:25:17;;;;;;;0.10;0.10;;;8.30;93.90;;;;;;5085852;28;20036;-81
2024/02/21 09:27:45;;;;;;;0.10;0.10;;;8.60;93.40;;;;;;5079629;28;20525;-81
2024/02/21 09:30:11;;;;;;;0.60;0.47;;;8.80;93.50;;;;;;5075999;28;20091;-81
2024/02/21 09:32:37;;;;;;;0.10;0.10;;;8.90;92.50;;;;;;5071294;28;20020;-81
2024/02/21 09:35:05;;;;;;;0.10;0.10;;;8.90;93.00;;;;;;5074269;28;20046;-81
2024/02/21 09:37:31;;;;;;;0.10;0.10;;;8.80;93.00;;;;;;5075222;28;20086;-81
2024/02/21 09:39:56;;;;;;;0.20;0.20;;;8.60;93.40;;;;;;5077323;28;20037;-81
2024/02/21 09:42:30;;;;;;;0.10;0.10;;;8.50;93.60;;;;;;5071153;28;20060;-81
2024/02/21 09:44:56;;;;;;;0.10;0.10;;;8.70;94.00;;;;;;5080507;28;20029;-81
2024/02/21 09:47:30;;;;;;;0.20;0.20;;;9.10;92.90;;;;;;5075075;28;20111;-81
2024/02/21 09:49:56;;;;;;;0.10;0.10;;;8.90;91.90;;;;;;5075498;28;20035;-82
2024/02/21 09:52:24;;;;;;;0.10;0.10;;;9.10;92.00;;;;;;5068749;28;20111;-81
2024/02/21 09:54:52;;;;;;;0.25;0.25;;;9.20;91.00;;;;;;5071948;28;20036;-80
2024/02/21 09:57:19;;;;;;;0.10;0.10;;;9.60;90.90;;;;;;5069998;28;20078;-81
2024/02/21 09:59:46;;;;;;;0.10;0.10;;;10.20;90.00;;;;;;5071924;28;20123;-81
2024/02/21 10:02:12;;;;;;;0.00;0.00;;;10.60;88.90;;;;;;5077958;28;20028;-81
2024/02/21 10:04:40;;;;;;;0.00;0.00;;;10.60;87.90;;;;;;5084260;28;20329;-82
2024/02/21 10:07:06;;;;;;;0.10;0.10;;;10.90;86.20;;;;;;5090667;28;20530;-81
2024/02/21 10:09:33;;;;;;;0.05;0.05;;;11.00;84.30;;;;;;5082872;28;20123;-81
2024/02/21 10:12:09;;;;;;;;;;;11.00;83.10;;;;;;5086288;28;20035;-81
2024/02/21 10:14:34;;;;;;;0.10;0.10;;;11.10;82.80;;;;;;5090041;28;19919;-82
2024/02/21 10:17:00;;;;;;;0.15;0.15;;;11.40;80.90;;;;;;5087711;28;20031;-82
2024/02/21 10:19:26;;;;;;;0.10;0.10;;;11.50;81.80;;;;;;5082988;28;20040;-83
2024/02/21 10:22:07;;;;;;;0.00;0.00;;;11.90;80.30;;;;;;5093052;28;20043;-81
2024/02/21 10:24:33;;;;;;;0.10;0.10;;;12.00;78.20;;;;;;5093067;28;20036;-81
2024/02/21 10:27:04;;;;;;;0.00;0.00;;;12.30;77.10;;;;;;5078945;28;20036;-81
2024/02/21 10:29:33;;;;;;;0.00;0.00;;;12.10;77.10;;;;;;5073502;28;20029;-82
2024/02/21 10:32:08;;;;;;;0.00;0.00;;;12.10;77.60;;;;;;5081360;28;20028;-81
2024/02/21 10:34:35;;;;;;;0.00;0.00;;;12.10;79.50;;;;;;5083089;28;20028;-82
2024/02/21 10:37:04;;;;;;;0.20;0.20;;;11.70;80.20;;;;;;5076367;28;20400;-81
2024/02/21 10:39:33;;;;;;;0.43;0.43;;;11.50;80.10;;;;;;5080298;28;20034;-81
2024/02/21 10:42:04;;;;;;;0.00;0.00;;;11.30;81.20;;;;;;5075407;28;20828;-81
2024/02/21 10:44:31;;;;;;;0.10;0.10;;;11.30;82.60;;;;;;5079657;28;20031;-81
2024/02/21 10:46:57;;;;;;;0.08;0.08;;;11.50;81.70;;;;;;5079584;28;20034;-82
2024/02/21 10:49:25;;;;;;;0.10;0.10;;;11.30;81.70;;;;;;5082344;28;20020;-82
2024/02/21 10:51:56;;;;;;;0.00;0.00;;;11.20;82.20;;;;;;5072507;28;20037;-81
2024/02/21 10:54:35;;;;;;;0.93;0.93;;;11.30;82.90;;;;;;5078627;28;20038;-82
2024/02/21 10:57:03;;;;;;;0.00;0.00;;;11.40;83.40;;;;;;5070432;28;20075;-81
2024/02/21 10:59:32;;;;;;;0.10;0.10;;;11.40;83.00;;;;;;5075958;28;20115;-82
2024/02/21 11:01:57;;;;;;;0.10;0.10;;;11.30;83.20;;;;;;5072370;28;20036;-80
2024/02/21 11:04:25;;;;;;;0.00;0.00;;;11.20;82.70;;;;;;5089691;28;20032;-81
2024/02/21 11:06:51;;;;;;;0.00;0.00;;;11.30;83.30;;;;;;5091250;28;20020;-83
2024/02/21 11:09:17;;;;;;;0.00;0.00;;;11.40;84.00;;;;;;5086073;28;20028;-81
2024/02/21 11:11:44;;;;;;;0.00;0.00;;;11.50;83.00;;;;;;5082111;28;20035;-82
2024/02/21 11:14:19;;;;;;;;;;;11.60;84.00;;;;;;5093040;28;21339;-83
2024/02/21 11:16:46;;;;;;;0.20;0.20;;;11.60;82.20;;;;;;5090513;28;20432;-82
2024/02/21 11:19:27;;;;;;;0.10;0.10;;;11.60;81.20;;;;;;5086749;28;20075;-82
2024/02/21 11:21:54;;;;;;;0.85;0.85;;;11.70;79.50;;;;;;5088162;28;20065;-82
2024/02/21 11:24:30;;;;;;;0.00;0.00;;;11.60;77.40;;;;;;5080914;28;20028;-83
2024/02/21 11:27:07;;;;;;;0.00;0.00;;;11.80;77.30;;;;;;5073046;28;20028;-81
2024/02/21 11:29:41;;;;;;;0.10;0.10;;;11.80;77.10;;;;;;5081791;28;20682;-82
2024/02/21 11:32:11;;;;;;;0.00;0.00;;;11.90;77.00;;;;;;5072839;28;20028;-82
2024/02/21 11:34:36;;;;;;;0.30;0.25;;;12.00;76.10;;;;;;5079187;28;20028;-82
2024/02/21 11:37:12;;;;;;;0.10;0.10;;;12.00;76.60;;;;;;5076501;28;20613;-82
2024/02/21 11:39:38;;;;;;;0.10;0.10;;;12.10;76.00;;;;;;5074017;28;20024;-81
2024/02/21 11:42:07;;;;;;;0.45;0.45;;;12.00;74.70;;;;;;5077382;28;20442;-80
2024/02/21 11:44:37;;;;;;;0.00;0.00;;;12.00;75.50;;;;;;5076727;28;20032;-80
2024/02/21 11:47:04;;;;;;;0.13;0.13;;;12.10;74.50;;;;;;5070884;28;20037;-80
2024/02/21 11:49:30;;;;;;;0.00;0.00;;;12.10;73.70;;;;;;5071871;28;20021;-80
2024/02/21 11:52:05;;;;;;;0.08;0.08;;;12.10;73.30;;;;;;5072373;28;20021;-80
2024/02/21 11:54:31;;;;;;;0.10;0.10;;;12.20;76.10;;;;;;5075537;28;20044;-81
2024/02/21 11:56:57;;;;;;;0.03;0.03;;;12.10;75.30;;;;;;5073221;28;20049;-80
2024/02/21 11:59:23;;;;;;;1.00;0.97;;;12.10;76.20;;;;;;5075757;28;20222;-80
2024/02/21 12:01:49;;;;;;;0.00;0.00;;;12.20;76.50;;;;;;5077825;28;20028;-80
2024/02/21 12:04:19;;;;;;;0.80;0.80;;;12.20;75.00;;;;;;5084457;28;20554;-80
2024/02/21 12:06:47;;;;;;;0.20;0.20;;;12.70;73.30;;;;;;5084986;28;20021;-80
2024/02/21 12:09:16;;;;;;;0.10;0.10;;;12.90;72.90;;;;;;5089626;28;20028;-80
2024/02/21 12:11:43;;;;;;;0.10;0.10;;;13.20;72.90;;;;;;5078745;28;20027;-80
2024/02/21 12:14:09;;;;;;;0.00;0.00;;;13.50;70.60;;;;;;5080319;28;20537;-80
2024/02/21 12:16:36;;;;;;;0.20;0.20;;;13.40;69.20;;;;;;5082987;28;20119;-80
2024/02/21 12:19:03;;;;;;;0.00;0.00;;;13.30;67.60;;;;;;5081464;28;20192;-80
2024/02/21 12:21:38;;;;;;;0.47;0.47;;;13.30;68.40;;;;;;5090384;28;20088;-80
2024/02/21 12:24:38;;;;;;;0.00;0.00;;;13.40;68.90;;;;;;5088853;28;20036;-81
2024/02/21 12:27:04;;;;;;;0.20;0.20;;;13.40;65.10;;;;;;5074970;28;20028;-81
2024/02/21 12:29:30;;;;;;;0.00;0.00;;;13.70;65.20;;;;;;5080513;28;20221;-81
2024/02/21 12:31:55;;;;;;;0.10;0.10;;;14.00;67.10;;;;;;5079869;28;20111;-81
2024/02/21 12:34:22;;;;;;;0.00;0.00;;;14.10;65.90;;;;;;5077184;28;20115;-81
2024/02/21 12:36:48;;;;;;;;;;;14.20;63.60;;;;;;5078277;28;20051;-81
2024/02/21 12:39:14;;;;;;;0.20;0.20;;;14.40;64.40;;;;;;5076696;28;19912;-80
2024/02/21 12:41:42;;;;;;;0.00;0.00;;;14.50;63.40;;;;;;5074787;28;20032;-82
2024/02/21 12:44:08;;;;;;;0.00;0.00;;;14.50;65.10;;;;;;5073632;28;20033;-80
2024/02/21 12:46:35;;;;;;;0.20;0.20;;;14.50;66.40;;;;;;5072032;28;20131;-80
2024/02/21 12:49:02;;;;;;;0.28;0.28;;;14.30;65.30;;;;;;5081807;28;20052;-82
2024/02/21 12:51:29;;;;;;;0.00;0.00;;;14.20;65.30;;;;;;5070074;28;20055;-80
2024/02/21 12:53:55;;;;;;;0.00;0.00;;;14.00;67.90;;;;;;5072808;28;20059;-82